sensor_id;sensor_type;location;lat;lon;timestamp;pressure;altitude;pressure_sealevel;temperature;humidity
71970;BME280;59838;52.152;5.436;2023-04-07T00:00:29;101581.38;;;8.02;100.00
71970;BME280;59838;52.152;5.436;2023-04-07T00:02:56;101587.47;;;8.01;100.00
71970;BME280;59838;52.152;5.436;2023-04-07T00:05:22;101590.88;;;8.01;100.00
71970;BME280;59838;52.152;5.436;2023-04-07T00:07:49;101587.47;;;8.01;100.00
71970;BME280;59838;52.152;5.436;2023-04-07T00:10:23;101590.22;;;7.99;100.00
71970;BME280;59838;52.152;5.436;2023-04-07T00:12:50;101590.06;;;8.01;100.00
71970;BME280;59838;52.152;5.436;2023-04-07T00:15:16;101596.19;;;8.00;100.00
71970;BME280;59838;52.152;5.436;2023-04-07T00:17:43;101595.41;;;7.99;100.00
71970;BME280;59838;52.152;5.436;2023-04-07T00:20:10;101600.56;;;7.99;100.00
71970;BME280;59838;52.152;5.436;2023-04-07T00:22:37;101595.69;;;7.96;100.00
71970;BME280;59838;52.152;5.436;2023-04-07T00:25:03;101595.81;;;7.95;100.00
71970;BME280;59838;52.152;5.436;2023-04-07T00:27:30;101600.06;;;7.96;100.00
71970;BME280;59838;52.152;5.436;2023-04-07T00:29:57;101600.84;;;7.96;100.00
71970;BME280;59838;52.152;5.436;2023-04-07T00:32:23;101599.22;;;7.95;100.00
71970;BME280;59838;52.152;5.436;2023-04-07T00:34:50;101601.97;;;7.94;100.00
71970;BME280;59838;52.152;5.436;2023-04-07T00:37:16;101607.16;;;7.94;100.00
71970;BME280;59838;52.152;5.436;2023-04-07T00:39:44;101603.75;;;7.93;100.00
71970;BME280;59838;52.152;5.436;2023-04-07T00:42:12;101602.28;;;7.91;100.00
71970;BME280;59838;52.152;5.436;2023-04-07T00:44:38;101602.28;;;7.91;100.00
71970;BME280;59838;52.152;5.436;2023-04-07T00:47:04;101599.69;;;7.91;100.00
71970;BME280;59838;52.152;5.436;2023-04-07T00:49:31;101597.09;;;7.91;100.00
71970;BME280;59838;52.152;5.436;2023-04-07T00:51:58;101598.19;;;7.88;100.00
71970;BME280;59838;52.152;5.436;2023-04-07T00:54:24;101602.56;;;7.87;100.00
71970;BME280;59838;52.152;5.436;2023-04-07T00:56:52;101596.56;;;7.87;100.00
71970;BME280;59838;52.152;5.436;2023-04-07T00:59:19;101611.28;;;7.86;100.00
71970;BME280;59838;52.152;5.436;2023-04-07T01:02:04;101602.84;;;7.84;100.00
71970;BME280;59838;52.152;5.436;2023-04-07T01:08:01;101604.63;;;7.84;100.00
71970;BME280;59838;52.152;5.436;2023-04-07T01:10:36;101604.78;;;7.82;100.00
71970;BME280;59838;52.152;5.436;2023-04-07T01:13:29;101596.03;;;7.83;100.00
71970;BME280;59838;52.152;5.436;2023-04-07T01:16:00;101602.03;;;7.84;100.00
71970;BME280;59838;52.152;5.436;2023-04-07T01:18:32;101597.00;;;7.82;100.00
71970;BME280;59838;52.152;5.436;2023-04-07T01:21:07;101602.19;;;7.82;100.00
71970;BME280;59838;52.152;5.436;2023-04-07T01:24:10;101597.81;;;7.83;100.00
71970;BME280;59838;52.152;5.436;2023-04-07T01:26:42;101597.81;;;7.83;100.00
71970;BME280;59838;52.152;5.436;2023-04-07T01:29:36;101599.59;;;7.82;100.00
71970;BME280;59838;52.152;5.436;2023-04-07T01:32:04;101604.78;;;7.82;100.00
71970;BME280;59838;52.152;5.436;2023-04-07T01:34:31;101597.16;;;7.81;100.00
71970;BME280;59838;52.152;5.436;2023-04-07T01:37:00;101603.13;;;7.81;100.00
71970;BME280;59838;52.152;5.436;2023-04-07T01:39:27;101604.78;;;7.82;100.00
71970;BME280;59838;52.152;5.436;2023-04-07T01:41:54;101605.06;;;7.79;100.00
71970;BME280;59838;52.152;5.436;2023-04-07T01:44:23;101600.69;;;7.80;100.00
71970;BME280;59838;52.152;5.436;2023-04-07T01:46:51;101600.84;;;7.78;100.00
71970;BME280;59838;52.152;5.436;2023-04-07T01:49:18;101603.28;;;7.80;100.00
71970;BME280;59838;52.152;5.436;2023-04-07T01:51:45;101606.00;;;7.78;100.00
71970;BME280;59838;52.152;5.436;2023-04-07T01:54:16;101606.00;;;7.78;100.00
71970;BME280;59838;52.152;5.436;2023-04-07T01:56:43;101597.44;;;7.78;100.00
71970;BME280;59838;52.152;5.436;2023-04-07T01:59:10;101603.41;;;7.78;100.00
71970;BME280;59838;52.152;5.436;2023-04-07T02:01:37;101597.44;;;7.78;100.00
71970;BME280;59838;52.152;5.436;2023-04-07T02:04:11;101603.41;;;7.78;100.00
71970;BME280;59838;52.152;5.436;2023-04-07T02:06:43;101594.72;;;7.79;100.00
71970;BME280;59838;52.152;5.436;2023-04-07T02:09:14;101599.88;;;7.79;100.00
71970;BME280;59838;52.152;5.436;2023-04-07T02:11:42;101602.47;;;7.79;100.00
71970;BME280;59838;52.152;5.436;2023-04-07T02:14:10;101603.13;;;7.81;100.00
71970;BME280;59838;52.152;5.436;2023-04-07T02:16:40;101597.97;;;7.81;100.00
71970;BME280;59838;52.152;5.436;2023-04-07T02:19:07;101601.50;;;7.80;100.00
71970;BME280;59838;52.152;5.436;2023-04-07T02:21:34;101600.69;;;7.80;100.00
71970;BME280;59838;52.152;5.436;2023-04-07T02:24:05;101608.31;;;7.81;100.00
71970;BME280;59838;52.152;5.436;2023-04-07T02:26:35;101612.53;;;7.82;100.00
71970;BME280;59838;52.152;5.436;2023-04-07T02:29:03;101608.31;;;7.81;100.00
71970;BME280;59838;52.152;5.436;2023-04-07T02:31:30;101609.94;;;7.82;100.00
71970;BME280;59838;52.152;5.436;2023-04-07T02:33:56;101609.13;;;7.82;100.00
71970;BME280;59838;52.152;5.436;2023-04-07T02:36:23;101613.47;;;7.81;100.00
71970;BME280;59838;52.152;5.436;2023-04-07T02:38:49;101608.31;;;7.81;100.00
71970;BME280;59838;52.152;5.436;2023-04-07T02:41:16;101605.72;;;7.81;100.00
71970;BME280;59838;52.152;5.436;2023-04-07T02:43:42;101611.69;;;7.82;100.00
71970;BME280;59838;52.152;5.436;2023-04-07T02:46:08;101597.00;;;7.82;100.00
71970;BME280;59838;52.152;5.436;2023-04-07T02:48:35;101602.34;;;7.81;100.00
71970;BME280;59838;52.152;5.436;2023-04-07T02:51:01;101603.28;;;7.80;100.00
71970;BME280;59838;52.152;5.436;2023-04-07T02:53:28;101606.53;;;7.82;100.00
71970;BME280;59838;52.152;5.436;2023-04-07T02:55:54;101606.66;;;7.80;100.00
71970;BME280;59838;52.152;5.436;2023-04-07T02:58:21;101609.13;;;7.82;100.00
71970;BME280;59838;52.152;5.436;2023-04-07T03:00:48;101608.16;;;7.83;100.00
71970;BME280;59838;52.152;5.436;2023-04-07T03:03:16;101612.53;;;7.82;100.00
71970;BME280;59838;52.152;5.436;2023-04-07T03:05:43;101604.63;;;7.84;100.00
71970;BME280;59838;52.152;5.436;2023-04-07T03:08:09;101604.78;;;7.82;100.00
71970;BME280;59838;52.152;5.436;2023-04-07T03:10:38;101610.75;;;7.83;100.00
71970;BME280;59838;52.152;5.436;2023-04-07T03:13:04;101618.66;;;7.81;100.00
71970;BME280;59838;52.152;5.436;2023-04-07T03:15:31;101612.69;;;7.81;100.00
71970;BME280;59838;52.152;5.436;2023-04-07T03:17:57;101611.84;;;7.80;100.00
71970;BME280;59838;52.152;5.436;2023-04-07T03:20:24;101613.63;;;7.80;100.00
71970;BME280;59838;52.152;5.436;2023-04-07T03:22:50;101611.97;;;7.79;100.00
71970;BME280;59838;52.152;5.436;2023-04-07T03:25:17;101609.41;;;7.79;100.00
71970;BME280;59838;52.152;5.436;2023-04-07T03:27:43;101610.22;;;7.79;100.00
71970;BME280;59838;52.152;5.436;2023-04-07T03:30:10;101617.16;;;7.79;100.00
71970;BME280;59838;52.152;5.436;2023-04-07T03:32:37;101615.41;;;7.79;100.00
71970;BME280;59838;52.152;5.436;2023-04-07T03:35:03;101617.00;;;7.80;100.00
71970;BME280;59838;52.152;5.436;2023-04-07T03:37:30;101621.25;;;7.81;100.00
71970;BME280;59838;52.152;5.436;2023-04-07T03:39:56;101632.53;;;7.80;100.00
71970;BME280;59838;52.152;5.436;2023-04-07T03:42:22;101616.34;;;7.78;100.00
71970;BME280;59838;52.152;5.436;2023-04-07T03:44:49;101622.19;;;7.80;100.00
71970;BME280;59838;52.152;5.436;2023-04-07T03:47:15;101619.59;;;7.80;100.00
71970;BME280;59838;52.152;5.436;2023-04-07T03:49:42;101622.19;;;7.80;100.00
71970;BME280;59838;52.152;5.436;2023-04-07T03:52:08;101623.03;;;7.81;100.00
71970;BME280;59838;52.152;5.436;2023-04-07T03:54:35;101621.25;;;7.81;100.00
71970;BME280;59838;52.152;5.436;2023-04-07T03:57:02;101614.44;;;7.80;100.00
71970;BME280;59838;52.152;5.436;2023-04-07T03:59:28;101614.44;;;7.80;100.00
71970;BME280;59838;52.152;5.436;2023-04-07T04:01:54;101617.84;;;7.81;100.00
71970;BME280;59838;52.152;5.436;2023-04-07T04:04:21;101620.59;;;7.79;100.00
71970;BME280;59838;52.152;5.436;2023-04-07T04:06:49;101616.06;;;7.81;100.00
71970;BME280;59838;52.152;5.436;2023-04-07T04:09:16;101621.25;;;7.81;100.00
71970;BME280;59838;52.152;5.436;2023-04-07T04:11:42;101617.84;;;7.81;100.00
71970;BME280;59838;52.152;5.436;2023-04-07T04:14:09;101625.47;;;7.82;100.00
71970;BME280;59838;52.152;5.436;2023-04-07T04:16:35;101623.03;;;7.81;100.00
71970;BME280;59838;52.152;5.436;2023-04-07T04:19:02;101622.34;;;7.79;100.00
71970;BME280;59838;52.152;5.436;2023-04-07T04:21:28;101625.91;;;7.78;100.00
71970;BME280;59838;52.152;5.436;2023-04-07T04:23:55;101633.66;;;7.78;100.00
71970;BME280;59838;52.152;5.436;2023-04-07T04:26:21;101629.56;;;7.75;100.00
71970;BME280;59838;52.152;5.436;2023-04-07T04:28:51;101629.28;;;7.78;100.00
71970;BME280;59838;52.152;5.436;2023-04-07T04:31:18;101638.00;;;7.77;100.00
71970;BME280;59838;52.152;5.436;2023-04-07T04:33:45;101637.19;;;7.77;100.00
71970;BME280;59838;52.152;5.436;2023-04-07T04:36:11;101640.28;;;7.80;100.00
71970;BME280;59838;52.152;5.436;2023-04-07T04:38:38;101635.97;;;7.81;100.00
71970;BME280;59838;52.152;5.436;2023-04-07T04:41:05;101639.34;;;7.81;100.00
71970;BME280;59838;52.152;5.436;2023-04-07T04:43:32;101647.13;;;7.81;100.00
71970;BME280;59838;52.152;5.436;2023-04-07T04:45:58;101647.13;;;7.81;100.00
71970;BME280;59838;52.152;5.436;2023-04-07T04:48:24;101663.59;;;7.80;100.00
71970;BME280;59838;52.152;5.436;2023-04-07T04:50:51;101661.97;;;7.79;100.00
71970;BME280;59838;52.152;5.436;2023-04-07T04:53:17;101667.16;;;7.79;100.00
71970;BME280;59838;52.152;5.436;2023-04-07T04:55:44;101663.59;;;7.80;100.00
71970;BME280;59838;52.152;5.436;2023-04-07T04:58:17;101666.16;;;7.80;100.00
71970;BME280;59838;52.152;5.436;2023-04-07T05:00:44;101671.19;;;7.82;100.00
71970;BME280;59838;52.152;5.436;2023-04-07T05:03:11;101670.41;;;7.81;100.00
71970;BME280;59838;52.152;5.436;2023-04-07T05:05:38;101672.19;;;7.81;100.00
71970;BME280;59838;52.152;5.436;2023-04-07T05:08:04;101666.31;;;7.79;100.00
71970;BME280;59838;52.152;5.436;2023-04-07T05:10:31;101667.16;;;7.79;100.00
71970;BME280;59838;52.152;5.436;2023-04-07T05:12:57;101673.25;;;7.78;100.00
71970;BME280;59838;52.152;5.436;2023-04-07T05:15:24;101674.06;;;7.79;100.00
71970;BME280;59838;52.152;5.436;2023-04-07T05:17:50;101669.72;;;7.79;100.00
71970;BME280;59838;52.152;5.436;2023-04-07T05:20:17;101674.75;;;7.81;100.00
71970;BME280;59838;52.152;5.436;2023-04-07T05:22:44;101673.25;;;7.78;100.00
71970;BME280;59838;52.152;5.436;2023-04-07T05:25:10;101679.25;;;7.79;100.00
71970;BME280;59838;52.152;5.436;2023-04-07T05:27:37;101675.03;;;7.78;100.00
71970;BME280;59838;52.152;5.436;2023-04-07T05:30:03;101676.66;;;7.79;100.00
71970;BME280;59838;52.152;5.436;2023-04-07T05:32:30;101679.09;;;7.80;100.00
71970;BME280;59838;52.152;5.436;2023-04-07T05:34:57;101686.88;;;7.80;100.00
71970;BME280;59838;52.152;5.436;2023-04-07T05:37:23;101680.75;;;7.81;100.00
71970;BME280;59838;52.152;5.436;2023-04-07T05:39:49;101689.44;;;7.80;100.00
71970;BME280;59838;52.152;5.436;2023-04-07T05:42:16;101688.66;;;7.80;100.00
71970;BME280;59838;52.152;5.436;2023-04-07T05:44:42;101690.44;;;7.79;100.00
71970;BME280;59838;52.152;5.436;2023-04-07T05:47:09;101692.03;;;7.80;100.00
71970;BME280;59838;52.152;5.436;2023-04-07T05:49:36;101692.19;;;7.79;100.00
71970;BME280;59838;52.152;5.436;2023-04-07T05:52:03;101693.00;;;7.79;100.00
71970;BME280;59838;52.152;5.436;2023-04-07T05:54:32;101695.47;;;7.81;100.00
71970;BME280;59838;52.152;5.436;2023-04-07T05:56:59;101692.03;;;7.80;100.00
71970;BME280;59838;52.152;5.436;2023-04-07T05:59:28;101695.59;;;7.79;100.00
71970;BME280;59838;52.152;5.436;2023-04-07T06:01:54;101695.59;;;7.79;100.00
71970;BME280;59838;52.152;5.436;2023-04-07T06:04:23;101701.56;;;7.80;100.00
71970;BME280;59838;52.152;5.436;2023-04-07T06:06:50;101701.56;;;7.80;100.00
71970;BME280;59838;52.152;5.436;2023-04-07T06:09:21;101707.56;;;7.80;100.00
71970;BME280;59838;52.152;5.436;2023-04-07T06:11:47;101715.88;;;7.84;100.00
71970;BME280;59838;52.152;5.436;2023-04-07T06:14:17;101714.75;;;7.86;100.00
71970;BME280;59838;52.152;5.436;2023-04-07T06:16:44;101712.31;;;7.85;100.00
71970;BME280;59838;52.152;5.436;2023-04-07T06:19:12;101715.56;;;7.87;100.00
71970;BME280;59838;52.152;5.436;2023-04-07T06:21:39;101716.53;;;7.86;100.00
71970;BME280;59838;52.152;5.436;2023-04-07T06:24:11;101720.44;;;7.90;100.00
71970;BME280;59838;52.152;5.436;2023-04-07T06:26:39;101716.78;;;7.93;100.00
71970;BME280;59838;52.152;5.436;2023-04-07T06:29:06;101720.41;;;8.00;100.00
71970;BME280;59838;52.152;5.436;2023-04-07T06:31:33;101727.22;;;8.01;100.00
71970;BME280;59838;52.152;5.436;2023-04-07T06:34:00;101731.44;;;8.02;100.00
71970;BME280;59838;52.152;5.436;2023-04-07T06:36:26;101725.16;;;8.04;100.00
71970;BME280;59838;52.152;5.436;2023-04-07T06:38:54;101727.59;;;8.06;100.00
71970;BME280;59838;52.152;5.436;2023-04-07T06:41:21;101725.31;;;8.03;100.00
71970;BME280;59838;52.152;5.436;2023-04-07T06:43:48;101723.41;;;8.05;100.00
71970;BME280;59838;52.152;5.436;2023-04-07T06:46:17;101726.50;;;8.09;100.00
71970;BME280;59838;52.152;5.436;2023-04-07T06:48:44;101733.56;;;8.16;100.00
71970;BME280;59838;52.152;5.436;2023-04-07T06:51:10;101737.47;;;8.20;100.00
71970;BME280;59838;52.152;5.436;2023-04-07T06:53:37;101739.22;;;8.30;100.00
71970;BME280;59838;52.152;5.436;2023-04-07T06:56:05;101743.97;;;8.34;100.00
71970;BME280;59838;52.152;5.436;2023-04-07T06:58:34;101741.88;;;8.38;100.00
71970;BME280;59838;52.152;5.436;2023-04-07T07:01:02;101744.88;;;8.43;100.00
71970;BME280;59838;52.152;5.436;2023-04-07T07:03:29;101744.31;;;8.49;100.00
71970;BME280;59838;52.152;5.436;2023-04-07T07:05:57;101746.88;;;8.49;100.00
71970;BME280;59838;52.152;5.436;2023-04-07T07:08:25;101748.06;;;8.55;100.00
71970;BME280;59838;52.152;5.436;2023-04-07T07:10:52;101744.38;;;8.57;100.00
71970;BME280;59838;52.152;5.436;2023-04-07T07:13:21;101749.34;;;8.51;100.00
71970;BME280;59838;52.152;5.436;2023-04-07T07:15:51;101748.34;;;8.52;100.00
71970;BME280;59838;52.152;5.436;2023-04-07T07:18:19;101744.97;;;8.51;100.00
71970;BME280;59838;52.152;5.436;2023-04-07T07:20:46;101752.94;;;8.58;100.00
71970;BME280;59838;52.152;5.436;2023-04-07T07:23:12;101753.47;;;8.62;100.00
71970;BME280;59838;52.152;5.436;2023-04-07T07:25:39;101762.59;;;8.66;100.00
71970;BME280;59838;52.152;5.436;2023-04-07T07:28:05;101760.38;;;8.71;100.00
71970;BME280;59838;52.152;5.436;2023-04-07T07:30:32;101761.03;;;8.73;100.00
71970;BME280;59838;52.152;5.436;2023-04-07T07:32:59;101761.34;;;8.70;100.00
71970;BME280;59838;52.152;5.436;2023-04-07T07:35:25;101774.19;;;8.62;100.00
71970;BME280;59838;52.152;5.436;2023-04-07T07:37:52;101771.75;;;8.60;100.00
71970;BME280;59838;52.152;5.436;2023-04-07T07:40:19;101774.03;;;8.63;100.00
71970;BME280;59838;52.152;5.436;2023-04-07T07:42:46;101781.97;;;8.62;100.00
71970;BME280;59838;52.152;5.436;2023-04-07T07:45:13;101781.00;;;8.63;100.00
71970;BME280;59838;52.152;5.436;2023-04-07T07:47:39;101777.31;;;8.65;100.00
71970;BME280;59838;52.152;5.436;2023-04-07T07:50:07;101779.47;;;8.70;100.00
71970;BME280;59838;52.152;5.436;2023-04-07T07:52:34;101781.09;;;8.71;100.00
71970;BME280;59838;52.152;5.436;2023-04-07T07:55:01;101783.84;;;8.69;100.00
71970;BME280;59838;52.152;5.436;2023-04-07T07:57:27;101784.50;;;8.71;100.00
71970;BME280;59838;52.152;5.436;2023-04-07T07:59:56;101791.16;;;8.74;100.00
71970;BME280;59838;52.152;5.436;2023-04-07T08:02:24;101801.69;;;8.72;100.00
71970;BME280;59838;52.152;5.436;2023-04-07T08:04:56;101790.50;;;8.72;100.00
71970;BME280;59838;52.152;5.436;2023-04-07T08:07:23;101805.47;;;8.78;100.00
71970;BME280;59838;52.152;5.436;2023-04-07T08:09:49;101796.72;;;8.79;100.00
71970;BME280;59838;52.152;5.436;2023-04-07T08:12:16;101802.56;;;8.81;100.00
71970;BME280;59838;52.152;5.436;2023-04-07T08:14:43;101798.88;;;8.84;100.00
71970;BME280;59838;52.152;5.436;2023-04-07T08:17:09;101806.50;;;8.85;100.00
71970;BME280;59838;52.152;5.436;2023-04-07T08:19:36;101806.22;;;8.88;100.00
71970;BME280;59838;52.152;5.436;2023-04-07T08:22:02;101807.53;;;8.92;100.00
71970;BME280;59838;52.152;5.436;2023-04-07T08:24:30;101814.22;;;8.95;100.00
71970;BME280;59838;52.152;5.436;2023-04-07T08:26:58;101814.56;;;9.00;100.00
71970;BME280;59838;52.152;5.436;2023-04-07T08:29:26;101812.88;;;9.09;100.00
71970;BME280;59838;52.152;5.436;2023-04-07T08:31:54;101812.59;;;9.12;100.00
71970;BME280;59838;52.152;5.436;2023-04-07T08:34:21;101817.31;;;9.17;100.00
71970;BME280;59838;52.152;5.436;2023-04-07T08:36:48;101819.97;;;9.25;100.00
71970;BME280;59838;52.152;5.436;2023-04-07T08:39:14;101820.22;;;9.31;100.00
71970;BME280;59838;52.152;5.436;2023-04-07T08:41:41;101820.56;;;9.37;100.00
71970;BME280;59838;52.152;5.436;2023-04-07T08:44:10;101818.03;;;9.45;100.00
71970;BME280;59838;52.152;5.436;2023-04-07T08:46:40;101826.28;;;9.40;100.00
71970;BME280;59838;52.152;5.436;2023-04-07T08:49:09;101816.75;;;9.49;100.00
71970;BME280;59838;52.152;5.436;2023-04-07T08:51:37;101826.44;;;9.65;100.00
71970;BME280;59838;52.152;5.436;2023-04-07T08:54:09;101819.06;;;9.78;99.96
71970;BME280;59838;52.152;5.436;2023-04-07T08:56:39;101827.69;;;9.79;98.25
71970;BME280;59838;52.152;5.436;2023-04-07T08:59:09;101836.22;;;9.71;98.48
71970;BME280;59838;52.152;5.436;2023-04-07T09:01:38;101829.94;;;9.74;98.27
71970;BME280;59838;52.152;5.436;2023-04-07T09:04:05;101839.31;;;9.75;97.89
71970;BME280;59838;52.152;5.436;2023-04-07T09:06:34;101844.16;;;9.69;97.44
71970;BME280;59838;52.152;5.436;2023-04-07T09:09:02;101848.75;;;9.76;97.27
71970;BME280;59838;52.152;5.436;2023-04-07T09:11:37;101846.81;;;9.78;96.99
71970;BME280;59838;52.152;5.436;2023-04-07T09:14:05;101842.81;;;9.83;96.97
71970;BME280;59838;52.152;5.436;2023-04-07T09:16:32;101842.84;;;9.92;96.27
71970;BME280;59838;52.152;5.436;2023-04-07T09:18:58;101854.34;;;9.89;95.94
71970;BME280;59838;52.152;5.436;2023-04-07T09:21:25;101854.69;;;9.94;95.95
71970;BME280;59838;52.152;5.436;2023-04-07T09:23:52;101853.75;;;9.95;95.67
71970;BME280;59838;52.152;5.436;2023-04-07T09:28:50;101852.19;;;10.11;94.85
71970;BME280;59838;52.152;5.436;2023-04-07T09:31:17;101843.81;;;10.25;94.34
71970;BME280;59838;52.152;5.436;2023-04-07T09:33:44;101849.00;;;10.25;94.09
71970;BME280;59838;52.152;5.436;2023-04-07T09:36:11;101846.78;;;10.30;94.38
71970;BME280;59838;52.152;5.436;2023-04-07T09:38:39;101850.34;;;10.29;93.80
71970;BME280;59838;52.152;5.436;2023-04-07T09:41:14;101854.06;;;10.27;93.29
71970;BME280;59838;52.152;5.436;2023-04-07T09:43:43;101855.84;;;10.26;94.12
71970;BME280;59838;52.152;5.436;2023-04-07T09:46:14;101858.13;;;10.29;93.21
71970;BME280;59838;52.152;5.436;2023-04-07T09:48:45;101859.91;;;10.20;92.61
71970;BME280;59838;52.152;5.436;2023-04-07T09:51:16;101856.41;;;10.12;92.64
71970;BME280;59838;52.152;5.436;2023-04-07T09:53:49;101857.91;;;10.14;92.55
71970;BME280;59838;52.152;5.436;2023-04-07T09:56:18;101859.03;;;10.12;92.33
71970;BME280;59838;52.152;5.436;2023-04-07T09:58:48;101861.69;;;10.28;92.19
71970;BME280;59838;52.152;5.436;2023-04-07T10:01:17;101863.41;;;10.37;92.21
71970;BME280;59838;52.152;5.436;2023-04-07T10:03:45;101863.09;;;10.40;92.26
71970;BME280;59838;52.152;5.436;2023-04-07T10:06:14;101862.44;;;10.38;91.88
71970;BME280;59838;52.152;5.436;2023-04-07T10:08:42;101860.16;;;10.35;91.60
71970;BME280;59838;52.152;5.436;2023-04-07T10:11:09;101862.69;;;10.27;90.36
71970;BME280;59838;52.152;5.436;2023-04-07T10:13:38;101866.84;;;10.20;91.00
71970;BME280;59838;52.152;5.436;2023-04-07T10:16:06;101868.50;;;10.21;90.48
71970;BME280;59838;52.152;5.436;2023-04-07T10:18:34;101875.66;;;10.27;90.78
71970;BME280;59838;52.152;5.436;2023-04-07T10:21:04;101873.72;;;10.29;90.76
71970;BME280;59838;52.152;5.436;2023-04-07T10:23:52;101879.72;;;10.30;90.67
71970;BME280;59838;52.152;5.436;2023-04-07T10:26:23;101878.06;;;10.20;90.56
71970;BME280;59838;52.152;5.436;2023-04-07T10:28:58;101888.22;;;10.14;90.26
71970;BME280;59838;52.152;5.436;2023-04-07T10:31:25;101887.94;;;10.17;90.66
71970;BME280;59838;52.152;5.436;2023-04-07T10:33:53;101887.44;;;10.13;90.13
71970;BME280;59838;52.152;5.436;2023-04-07T10:36:20;101883.69;;;10.07;90.25
71970;BME280;59838;52.152;5.436;2023-04-07T10:44:05;101887.81;;;10.27;90.07
71970;BME280;59838;52.152;5.436;2023-04-07T10:49:13;101897.72;;;10.23;88.92
71970;BME280;59838;52.152;5.436;2023-04-07T10:51:43;101909.44;;;10.27;88.74
71970;BME280;59838;52.152;5.436;2023-04-07T10:54:18;101907.47;;;10.29;88.38
71970;BME280;59838;52.152;5.436;2023-04-07T10:59:28;101899.66;;;10.47;88.40
71970;BME280;59838;52.152;5.436;2023-04-07T11:04:42;101906.34;;;10.32;87.70
71970;BME280;59838;52.152;5.436;2023-04-07T11:07:10;101901.50;;;10.29;88.10
71970;BME280;59838;52.152;5.436;2023-04-07T11:09:36;101912.94;;;10.18;87.64
71970;BME280;59838;52.152;5.436;2023-04-07T11:12:03;101919.63;;;10.20;88.25
71970;BME280;59838;52.152;5.436;2023-04-07T11:14:31;101914.19;;;10.14;87.92
71970;BME280;59838;52.152;5.436;2023-04-07T11:16:59;101915.03;;;10.14;88.33
71970;BME280;59838;52.152;5.436;2023-04-07T11:19:26;101912.34;;;10.24;88.31
71970;BME280;59838;52.152;5.436;2023-04-07T11:22:13;101923.28;;;10.36;89.00
71970;BME280;59838;52.152;5.436;2023-04-07T11:24:54;101924.16;;;10.45;88.23
71970;BME280;59838;52.152;5.436;2023-04-07T11:27:21;101921.91;;;10.50;87.61
71970;BME280;59838;52.152;5.436;2023-04-07T11:29:47;101912.63;;;10.47;87.35
71970;BME280;59838;52.152;5.436;2023-04-07T11:32:14;101919.81;;;10.53;86.98
71970;BME280;59838;52.152;5.436;2023-04-07T11:34:41;101918.22;;;10.60;87.22
71970;BME280;59838;52.152;5.436;2023-04-07T11:37:21;101928.16;;;10.65;86.38
71970;BME280;59838;52.152;5.436;2023-04-07T11:39:56;101935.13;;;10.65;86.44
71970;BME280;59838;52.152;5.436;2023-04-07T11:42:36;101927.69;;;10.70;86.27
71970;BME280;59838;52.152;5.436;2023-04-07T11:45:04;101928.19;;;10.73;87.37
71970;BME280;59838;52.152;5.436;2023-04-07T11:47:38;101931.78;;;10.72;86.18
71970;BME280;59838;52.152;5.436;2023-04-07T11:50:05;101932.38;;;10.66;85.74
71970;BME280;59838;52.152;5.436;2023-04-07T11:52:46;101937.09;;;10.63;85.47
71970;BME280;59838;52.152;5.436;2023-04-07T11:57:47;101936.25;;;10.62;84.71
71970;BME280;59838;52.152;5.436;2023-04-07T12:00:13;101936.41;;;10.60;85.48
71970;BME280;59838;52.152;5.436;2023-04-07T12:02:41;101942.78;;;10.66;85.37
71970;BME280;59838;52.152;5.436;2023-04-07T12:05:08;101943.13;;;10.71;85.28
71970;BME280;59838;52.152;5.436;2023-04-07T12:07:36;101945.41;;;10.74;84.79
71970;BME280;59838;52.152;5.436;2023-04-07T12:10:20;101945.41;;;10.74;84.44
71970;BME280;59838;52.152;5.436;2023-04-07T12:12:47;101952.91;;;10.77;84.89
71970;BME280;59838;52.152;5.436;2023-04-07T12:15:13;101951.75;;;10.80;84.67
71970;BME280;59838;52.152;5.436;2023-04-07T12:17:45;101959.72;;;10.78;84.07
71970;BME280;59838;52.152;5.436;2023-04-07T12:20:13;101957.25;;;10.77;83.33
71970;BME280;59838;52.152;5.436;2023-04-07T12:22:40;101954.34;;;10.80;83.03
71970;BME280;59838;52.152;5.436;2023-04-07T12:25:07;101964.28;;;10.85;83.40
71970;BME280;59838;52.152;5.436;2023-04-07T12:27:34;101961.72;;;10.93;82.99
71970;BME280;59838;52.152;5.436;2023-04-07T12:30:09;101960.91;;;10.92;82.48
71970;BME280;59838;52.152;5.436;2023-04-07T12:32:38;101967.41;;;10.96;82.63
71970;BME280;59838;52.152;5.436;2023-04-07T12:35:06;101967.25;;;10.98;82.29
71970;BME280;59838;52.152;5.436;2023-04-07T12:37:32;101965.84;;;11.04;82.64
71970;BME280;59838;52.152;5.436;2023-04-07T12:39:58;101960.47;;;11.05;82.92
71970;BME280;59838;52.152;5.436;2023-04-07T12:42:26;101973.31;;;11.07;83.24
71970;BME280;59838;52.152;5.436;2023-04-07T12:44:52;101967.31;;;11.06;83.62
71970;BME280;59838;52.152;5.436;2023-04-07T12:47:19;101968.41;;;10.95;82.90
71970;BME280;59838;52.152;5.436;2023-04-07T12:49:46;101971.31;;;10.92;82.99
71970;BME280;59838;52.152;5.436;2023-04-07T12:52:15;101970.00;;;10.88;82.95
71970;BME280;59838;52.152;5.436;2023-04-07T12:54:42;101974.88;;;10.91;83.63
71970;BME280;59838;52.152;5.436;2023-04-07T12:57:09;101981.41;;;10.95;83.60
71970;BME280;59838;52.152;5.436;2023-04-07T12:59:36;101985.44;;;10.90;83.30
71970;BME280;59838;52.152;5.436;2023-04-07T13:02:03;101982.84;;;10.90;83.53
71970;BME280;59838;52.152;5.436;2023-04-07T13:04:29;101984.13;;;10.86;83.42
71970;BME280;59838;52.152;5.436;2023-04-07T13:06:56;101986.00;;;10.75;83.71
71970;BME280;59838;52.152;5.436;2023-04-07T13:09:23;101983.53;;;10.66;83.65
71970;BME280;59838;52.152;5.436;2023-04-07T13:11:50;101984.97;;;10.60;83.84
71970;BME280;59838;52.152;5.436;2023-04-07T13:14:17;101984.63;;;10.55;83.83
71970;BME280;59838;52.152;5.436;2023-04-07T13:16:43;101988.78;;;10.48;84.26